createdAt,value
2022-11-13T00:00:17.740Z,10.18
2022-11-13T00:03:09.950Z,10.18
2022-11-13T00:05:42.134Z,10.23
2022-11-13T00:08:15.635Z,10.25
2022-11-13T00:10:48.632Z,10.24
2022-11-13T00:13:29.027Z,10.24
2022-11-13T00:16:04.689Z,10.24
2022-11-13T00:18:39.009Z,10.19
2022-11-13T00:21:13.995Z,10.13
2022-11-13T00:23:47.139Z,10.06
2022-11-13T00:26:21.960Z,10.04
2022-11-13T00:28:58.368Z,10.05
2022-11-13T00:31:31.212Z,10.05
2022-11-13T00:36:58.906Z,10.01
2022-11-13T00:39:32.349Z,10.03
2022-11-13T00:42:05.648Z,10.06
2022-11-13T00:44:38.429Z,10.08
2022-11-13T00:47:11.692Z,10.08
2022-11-13T00:49:44.775Z,10.09
2022-11-13T00:52:17.990Z,10.06
2022-11-13T00:54:50.454Z,10.03
2022-11-13T00:57:23.796Z,10.01
2022-11-13T00:59:58.830Z,9.99
2022-11-13T01:02:32.045Z,10.00
2022-11-13T01:05:06.638Z,9.97
2022-11-13T01:14:40.676Z,9.92
2022-11-13T01:17:13.143Z,9.92
2022-11-13T01:19:45.435Z,9.94
2022-11-13T01:22:17.627Z,9.95
2022-11-13T01:24:49.854Z,9.97
2022-11-13T01:27:22.040Z,9.97
2022-11-13T01:29:54.421Z,9.97
2022-11-13T01:32:26.598Z,9.98
2022-11-13T01:34:58.822Z,9.98
2022-11-13T01:37:31.155Z,9.94
2022-11-13T01:40:03.304Z,9.88
2022-11-13T01:42:36.859Z,9.84
2022-11-13T01:45:39.669Z,9.81
2022-11-13T01:48:14.819Z,9.77
2022-11-13T01:50:47.027Z,9.74
2022-11-13T01:53:19.398Z,9.72
2022-11-13T01:55:51.610Z,9.73
2022-11-13T01:58:23.933Z,9.72
2022-11-13T02:00:56.205Z,9.70
2022-11-13T02:03:28.391Z,9.69
2022-11-13T02:06:00.684Z,9.68
2022-11-13T02:08:32.980Z,9.66
2022-11-13T02:11:05.188Z,9.64
2022-11-13T02:13:39.010Z,9.56
2022-11-13T02:16:13.363Z,9.51
2022-11-13T02:18:45.834Z,9.49
2022-11-13T02:21:26.983Z,9.46
2022-11-13T02:24:05.112Z,9.42
2022-11-13T02:26:38.082Z,9.39
2022-11-13T02:29:10.351Z,9.39
2022-11-13T02:31:42.568Z,9.38
2022-11-13T02:34:14.799Z,9.41
2022-11-13T02:36:47.111Z,9.44
2022-11-13T02:39:19.298Z,9.47
2022-11-13T02:41:51.467Z,9.48
2022-11-13T02:44:23.657Z,9.44
2022-11-13T02:46:55.956Z,9.43
2022-11-13T02:49:28.173Z,9.41
2022-11-13T02:52:00.353Z,9.36
2022-11-13T02:54:32.574Z,9.34
2022-11-13T02:57:04.904Z,9.34
2022-11-13T02:59:37.077Z,9.33
2022-11-13T03:02:09.341Z,9.30
2022-11-13T03:05:10.304Z,9.29
2022-11-13T03:07:33.732Z,9.30
2022-11-13T03:10:07.146Z,9.33
2022-11-13T03:12:40.742Z,9.36
2022-11-13T03:15:13.800Z,9.38
2022-11-13T03:17:46.058Z,9.39
2022-11-13T03:20:18.547Z,9.38
2022-11-13T03:22:50.759Z,9.34
2022-11-13T03:25:22.955Z,9.23
2022-11-13T03:27:55.083Z,9.12
2022-11-13T03:30:27.419Z,9.06
2022-11-13T03:32:59.836Z,9.04
2022-11-13T03:35:38.077Z,9.03
2022-11-13T03:38:14.084Z,9.05
2022-11-13T03:40:46.403Z,9.04
2022-11-13T03:43:18.631Z,9.03
2022-11-13T03:45:50.919Z,9.05
2022-11-13T03:48:23.059Z,9.10
2022-11-13T03:50:57.170Z,9.12
2022-11-13T03:53:29.285Z,9.14
2022-11-13T03:56:01.462Z,9.15
2022-11-13T03:58:35.401Z,9.16
2022-11-13T04:01:10.835Z,9.18
2022-11-13T04:03:43.051Z,9.21
2022-11-13T04:06:15.784Z,9.23
2022-11-13T04:08:48.344Z,9.20
2022-11-13T04:11:20.583Z,9.17
2022-11-13T04:13:52.712Z,9.14
2022-11-13T04:16:24.992Z,9.12
2022-11-13T04:18:57.344Z,9.10
2022-11-13T04:21:29.571Z,9.06
2022-11-13T04:24:01.843Z,8.99
2022-11-13T04:26:34.067Z,8.92
2022-11-13T04:29:06.286Z,8.91
2022-11-13T04:31:38.515Z,8.95
2022-11-13T04:34:11.380Z,8.99
2022-11-13T04:36:43.574Z,9.01
2022-11-13T04:39:15.747Z,9.03
2022-11-13T04:42:05.392Z,9.03
2022-11-13T04:44:37.647Z,8.99
2022-11-13T04:47:09.864Z,8.91
2022-11-13T04:49:42.200Z,8.79
2022-11-13T04:52:14.424Z,8.75
2022-11-13T04:54:46.556Z,8.74
2022-11-13T04:57:18.725Z,8.75
2022-11-13T04:59:51.015Z,8.74
2022-11-13T05:02:23.360Z,8.71
2022-11-13T05:04:58.213Z,8.68
2022-11-13T05:07:32.713Z,8.70
2022-11-13T05:10:05.146Z,8.73
2022-11-13T05:12:37.619Z,8.76
2022-11-13T05:15:09.436Z,8.79
2022-11-13T05:17:41.696Z,8.80
2022-11-13T05:20:14.844Z,8.85
2022-11-13T05:22:47.015Z,8.85
2022-11-13T05:25:19.347Z,8.83
2022-11-13T05:27:51.479Z,8.83
2022-11-13T05:30:23.728Z,8.82
2022-11-13T05:32:55.883Z,8.81
2022-11-13T05:35:28.131Z,8.82
2022-11-13T05:38:03.176Z,8.85
2022-11-13T05:40:35.283Z,8.88
2022-11-13T05:43:07.404Z,8.92
2022-11-13T05:45:39.586Z,9.00
2022-11-13T05:48:11.785Z,9.05
2022-11-13T05:50:44.019Z,9.07
2022-11-13T05:53:16.595Z,9.05
2022-11-13T05:55:48.765Z,9.04
2022-11-13T05:58:20.985Z,9.08
2022-11-13T06:00:53.155Z,9.10
2022-11-13T06:03:25.281Z,9.06
2022-11-13T06:05:57.450Z,9.02
2022-11-13T06:08:29.976Z,8.99
2022-11-13T06:11:04.212Z,9.00
2022-11-13T06:13:36.545Z,8.98
2022-11-13T06:16:10.333Z,9.00
2022-11-13T06:18:43.987Z,9.02
2022-11-13T06:21:18.280Z,9.05
2022-11-13T06:23:50.735Z,9.07
2022-11-13T06:26:24.935Z,9.09
2022-11-13T06:28:57.480Z,9.15
2022-11-13T06:31:30.995Z,9.23
2022-11-13T06:34:03.471Z,9.30
2022-11-13T06:36:37.692Z,9.37
2022-11-13T06:39:10.968Z,9.45
2022-11-13T06:41:43.194Z,9.49
2022-11-13T06:44:15.417Z,9.53
2022-11-13T06:46:47.664Z,9.53
2022-11-13T06:49:19.907Z,9.56
2022-11-13T06:51:52.139Z,9.61
2022-11-13T06:54:24.399Z,9.69
2022-11-13T06:56:56.651Z,9.75
2022-11-13T06:59:28.961Z,9.77
2022-11-13T07:02:01.275Z,9.83
2022-11-13T07:04:33.675Z,9.88
2022-11-13T07:07:06.189Z,9.89
2022-11-13T07:09:38.624Z,9.84
2022-11-13T07:12:10.998Z,9.85
2022-11-13T07:14:43.371Z,9.86
2022-11-13T07:17:15.536Z,9.86
2022-11-13T07:19:48.512Z,9.87
2022-11-13T07:22:20.710Z,9.89
2022-11-13T07:24:53.272Z,9.92
2022-11-13T07:27:25.521Z,9.97
2022-11-13T07:30:02.299Z,9.99
2022-11-13T07:32:36.211Z,10.02
2022-11-13T07:35:10.513Z,10.02
2022-11-13T07:37:42.723Z,10.05
2022-11-13T07:40:15.461Z,10.10
2022-11-13T07:42:47.629Z,10.13
2022-11-13T07:45:20.248Z,10.16
2022-11-13T07:47:50.771Z,10.18
2022-11-13T07:50:23.045Z,10.19
2022-11-13T07:52:59.525Z,10.28
2022-11-13T07:55:32.138Z,10.38
2022-11-13T07:58:02.994Z,10.47
2022-11-13T08:00:37.526Z,10.51
2022-11-13T08:03:10.758Z,10.59
2022-11-13T08:05:43.340Z,10.64
2022-11-13T08:08:14.756Z,10.66
2022-11-13T08:10:46.852Z,10.66
2022-11-13T08:13:19.531Z,10.66
2022-11-13T08:15:50.075Z,10.67
2022-11-13T08:18:22.346Z,10.65
2022-11-13T08:20:55.022Z,10.67
2022-11-13T08:23:25.502Z,10.71
2022-11-13T08:25:57.690Z,10.74
2022-11-13T08:28:30.271Z,10.79
2022-11-13T08:31:02.961Z,10.85
2022-11-13T08:33:35.272Z,10.91
2022-11-13T08:36:08.365Z,10.97
2022-11-13T08:38:40.671Z,11.02
2022-11-13T08:41:13.129Z,11.09
2022-11-13T08:43:45.342Z,11.14
2022-11-13T08:46:18.889Z,11.19
2022-11-13T08:48:51.518Z,11.24
2022-11-13T08:51:22.098Z,11.29
2022-11-13T08:53:54.239Z,11.33
2022-11-13T08:56:26.889Z,11.41
2022-11-13T08:58:57.423Z,11.49
2022-11-13T09:01:30.021Z,11.53
2022-11-13T09:04:00.594Z,11.62
2022-11-13T09:06:32.885Z,11.65
2022-11-13T09:09:04.879Z,11.71
2022-11-13T09:11:38.256Z,11.76
2022-11-13T09:14:12.358Z,11.84
2022-11-13T09:16:46.484Z,11.86
2022-11-13T09:19:20.883Z,11.91
2022-11-13T09:21:54.134Z,11.99
2022-11-13T09:24:27.541Z,12.09
2022-11-13T09:27:00.878Z,12.19
2022-11-13T09:29:34.436Z,12.31
2022-11-13T09:32:08.243Z,12.35
2022-11-13T09:34:42.680Z,12.39
2022-11-13T09:37:18.291Z,12.44
2022-11-13T09:39:52.594Z,12.55
2022-11-13T09:46:41.275Z,13.23
2022-11-13T09:49:17.276Z,13.67
2022-11-13T09:51:54.831Z,14.09
2022-11-13T09:54:28.268Z,14.51
2022-11-13T09:57:07.613Z,14.78
2022-11-13T09:59:45.721Z,15.06
2022-11-13T10:02:25.426Z,15.44
2022-11-13T10:05:05.039Z,15.80
2022-11-13T10:14:51.604Z,16.60
2022-11-13T10:17:28.510Z,16.64
2022-11-13T10:20:02.786Z,16.66
2022-11-13T10:22:38.654Z,16.66
2022-11-13T10:25:17.125Z,16.59
2022-11-13T10:27:52.363Z,16.49
2022-11-13T10:30:24.821Z,16.32
2022-11-13T10:32:55.376Z,16.10
2022-11-13T10:35:38.371Z,15.85
2022-11-13T10:38:17.748Z,15.72
2022-11-13T10:40:49.917Z,15.60
2022-11-13T10:43:23.590Z,15.50
2022-11-13T10:46:00.449Z,15.49
2022-11-13T10:48:34.647Z,15.48
2022-11-13T10:51:22.493Z,15.42
2022-11-13T10:53:55.341Z,15.32
2022-11-13T10:56:31.222Z,15.30
2022-11-13T10:59:10.519Z,15.32
2022-11-13T11:01:43.813Z,15.38
2022-11-13T11:04:24.161Z,15.37
2022-11-13T11:07:19.168Z,15.35
2022-11-13T11:09:50.452Z,15.32
2022-11-13T11:12:30.742Z,15.37
2022-11-13T11:15:11.519Z,15.49
2022-11-13T11:17:48.060Z,15.60
2022-11-13T11:20:30.611Z,15.74
2022-11-13T11:23:06.426Z,15.98
2022-11-13T11:25:42.278Z,16.32
2022-11-13T11:28:18.038Z,16.72
2022-11-13T11:30:57.292Z,17.05
2022-11-13T11:33:34.347Z,17.33
2022-11-13T11:36:15.070Z,17.51
2022-11-13T11:38:52.482Z,17.72
2022-11-13T11:41:30.856Z,17.97
2022-11-13T11:44:10.478Z,18.28
2022-11-13T11:46:46.727Z,18.57
2022-11-13T11:49:19.300Z,18.80
2022-11-13T11:51:58.241Z,19.03
2022-11-13T11:54:41.641Z,19.17
2022-11-13T11:57:24.807Z,19.18
2022-11-13T12:00:07.529Z,19.11
2022-11-13T12:02:52.921Z,19.20
2022-11-13T12:05:30.997Z,19.32
2022-11-13T12:08:12.490Z,19.36
2022-11-13T12:10:51.798Z,19.52
2022-11-13T12:13:30.480Z,19.57
2022-11-13T12:16:10.904Z,19.73
2022-11-13T12:18:53.725Z,19.98
2022-11-13T12:21:29.494Z,20.17
2022-11-13T12:24:11.541Z,20.05
2022-11-13T12:26:50.944Z,19.81
2022-11-13T12:29:38.791Z,19.58
2022-11-13T12:32:24.713Z,19.48
2022-11-13T12:35:11.347Z,19.37
2022-11-13T12:37:51.535Z,19.38
2022-11-13T12:40:29.715Z,19.40
2022-11-13T12:43:26.794Z,19.41
2022-11-13T12:46:02.011Z,19.42
2022-11-13T12:48:38.579Z,19.32
2022-11-13T12:51:12.308Z,19.08
2022-11-13T12:53:50.475Z,18.80
2022-11-13T12:56:35.025Z,18.60
2022-11-13T12:59:31.279Z,18.42
2022-11-13T13:02:20.922Z,18.29
2022-11-13T13:05:15.015Z,18.19
2022-11-13T13:08:12.843Z,18.01
2022-11-13T13:11:03.599Z,18.02
2022-11-13T13:13:50.272Z,18.05
2022-11-13T13:16:29.942Z,18.08
2022-11-13T13:19:28.913Z,18.00
2022-11-13T13:22:05.334Z,17.96
2022-11-13T13:24:42.609Z,17.96
2022-11-13T13:27:27.757Z,17.95
2022-11-13T13:30:00.545Z,17.94
2022-11-13T13:32:37.861Z,17.90
2022-11-13T13:35:13.793Z,17.75
2022-11-13T13:37:50.599Z,17.65
2022-11-13T13:40:35.280Z,17.50
2022-11-13T13:43:33.797Z,17.47
2022-11-13T13:46:12.723Z,17.42
2022-11-13T13:48:46.470Z,17.31
2022-11-13T13:51:31.916Z,17.21
2022-11-13T13:54:07.219Z,17.10
2022-11-13T13:56:44.504Z,17.01
2022-11-13T13:59:21.395Z,16.95
2022-11-13T14:02:00.102Z,16.92
2022-11-13T14:04:48.632Z,16.86
2022-11-13T14:07:25.890Z,16.81
2022-11-13T14:10:10.357Z,16.71
2022-11-13T14:12:46.585Z,16.63
2022-11-13T14:15:26.613Z,16.57
2022-11-13T14:18:10.411Z,16.50
2022-11-13T14:20:47.108Z,16.39
2022-11-13T14:23:22.744Z,16.30
2022-11-13T14:25:55.427Z,16.23
2022-11-13T14:28:29.719Z,16.20
2022-11-13T14:31:04.165Z,16.16
2022-11-13T14:33:42.157Z,16.10
2022-11-13T14:36:15.151Z,16.05
2022-11-13T14:38:52.100Z,15.99
2022-11-13T14:41:27.986Z,15.92
2022-11-13T14:44:00.826Z,15.86
2022-11-13T14:46:35.487Z,15.83
2022-11-13T14:49:15.792Z,15.82
2022-11-13T14:51:57.752Z,15.76
2022-11-13T14:55:08.024Z,15.68
2022-11-13T14:57:31.655Z,15.60
2022-11-13T15:00:14.863Z,15.52
2022-11-13T15:02:47.122Z,15.45
2022-11-13T15:05:19.529Z,15.39
2022-11-13T15:07:52.602Z,15.33
2022-11-13T15:10:29.346Z,15.25
2022-11-13T15:13:06.376Z,15.17
2022-11-13T15:15:38.745Z,15.12
2022-11-13T15:18:13.939Z,15.07
2022-11-13T15:20:46.324Z,15.00
2022-11-13T15:23:19.296Z,14.95
2022-11-13T15:25:51.455Z,14.91
2022-11-13T15:28:23.676Z,14.87
2022-11-13T15:30:56.750Z,14.80
2022-11-13T15:33:29.377Z,14.76
2022-11-13T15:36:01.770Z,14.74
2022-11-13T15:38:33.971Z,14.70
2022-11-13T15:41:12.174Z,14.68
2022-11-13T15:43:46.784Z,14.61
2022-11-13T15:46:21.753Z,14.54
2022-11-13T15:48:54.391Z,14.49
2022-11-13T15:51:29.562Z,14.44
2022-11-13T15:54:03.583Z,14.39
2022-11-13T15:56:35.792Z,14.35
2022-11-13T15:59:08.027Z,14.29
2022-11-13T16:01:40.626Z,14.24
2022-11-13T16:04:14.969Z,14.19
2022-11-13T16:06:47.337Z,14.13
2022-11-13T16:09:19.612Z,14.09
2022-11-13T16:11:51.856Z,14.07
2022-11-13T16:14:25.177Z,14.04
2022-11-13T16:16:57.745Z,14.04
2022-11-13T16:19:30.462Z,14.04
2022-11-13T16:22:05.698Z,14.01
2022-11-13T16:24:37.962Z,13.96
2022-11-13T16:27:12.649Z,13.87
2022-11-13T16:29:45.462Z,13.81
2022-11-13T16:32:18.863Z,13.80
2022-11-13T16:34:53.826Z,13.78
2022-11-13T16:37:27.187Z,13.75
2022-11-13T16:39:59.390Z,13.69
2022-11-13T16:42:31.813Z,13.64
2022-11-13T16:45:04.254Z,13.59
2022-11-13T16:47:36.705Z,13.57
2022-11-13T16:50:10.443Z,13.61
2022-11-13T16:52:42.683Z,13.61
2022-11-13T16:55:14.987Z,13.66
2022-11-13T16:57:47.469Z,13.70
2022-11-13T17:00:21.557Z,13.72
2022-11-13T17:02:54.905Z,13.68
2022-11-13T17:05:27.289Z,13.64
2022-11-13T17:08:01.962Z,13.64
2022-11-13T17:10:34.694Z,13.66
2022-11-13T17:13:12.660Z,13.67
2022-11-13T17:15:46.613Z,13.66
2022-11-13T17:18:17.581Z,13.66
2022-11-13T17:20:55.556Z,13.57
2022-11-13T17:23:28.874Z,13.51
2022-11-13T17:26:10.637Z,13.41
2022-11-13T17:28:43.278Z,13.31
2022-11-13T17:31:15.841Z,13.25
2022-11-13T17:33:48.535Z,13.21
2022-11-13T17:36:30.644Z,13.23
2022-11-13T17:39:10.983Z,13.28
2022-11-13T17:41:45.073Z,13.27
2022-11-13T17:44:26.869Z,13.27
2022-11-13T17:46:59.647Z,13.19
2022-11-13T17:49:31.098Z,13.15
2022-11-13T17:52:08.033Z,13.07
2022-11-13T17:54:57.568Z,13.02
2022-11-13T17:57:36.457Z,12.94
2022-11-13T18:00:18.388Z,12.86
2022-11-13T18:02:50.995Z,12.88
2022-11-13T18:05:21.777Z,12.93
2022-11-13T18:07:54.062Z,12.96
2022-11-13T18:10:36.475Z,12.98
2022-11-13T18:13:11.249Z,13.02
2022-11-13T18:15:44.285Z,13.03
2022-11-13T18:18:16.795Z,13.06
2022-11-13T18:20:49.783Z,13.09
2022-11-13T18:23:20.507Z,13.09
2022-11-13T18:25:53.033Z,13.07
2022-11-13T18:28:25.377Z,13.07
2022-11-13T18:30:57.988Z,13.07
2022-11-13T18:33:30.840Z,13.06
2022-11-13T18:36:03.867Z,13.05
2022-11-13T18:38:36.445Z,13.02
2022-11-13T18:41:11.336Z,13.01
2022-11-13T18:43:45.515Z,12.97
2022-11-13T18:46:19.103Z,12.94
2022-11-13T18:48:52.136Z,12.92
2022-11-13T18:51:25.903Z,12.91
2022-11-13T18:53:58.664Z,12.87
2022-11-13T18:56:32.189Z,12.80
2022-11-13T18:59:04.447Z,12.75
2022-11-13T19:07:56.513Z,12.61
2022-11-13T19:10:30.745Z,12.61
2022-11-13T19:13:03.508Z,12.63
2022-11-13T19:15:39.421Z,12.65
2022-11-13T19:18:12.086Z,12.67
2022-11-13T19:20:43.910Z,12.67
2022-11-13T19:23:18.533Z,12.61
2022-11-13T19:28:10.590Z,12.59
2022-11-13T19:30:48.486Z,12.54
2022-11-13T19:33:22.358Z,12.52
2022-11-13T19:35:54.934Z,12.52
2022-11-13T19:38:28.848Z,12.50
2022-11-13T19:41:02.047Z,12.50
2022-11-13T19:43:36.110Z,12.51
2022-11-13T19:46:09.739Z,12.51
2022-11-13T19:48:43.953Z,12.50
2022-11-13T19:51:18.352Z,12.46
2022-11-13T19:53:53.395Z,12.42
2022-11-13T19:56:28.482Z,12.40
2022-11-13T19:59:02.280Z,12.38
2022-11-13T20:01:38.060Z,12.39
2022-11-13T20:04:16.142Z,12.41
2022-11-13T20:06:50.984Z,12.40
2022-11-13T20:09:23.498Z,12.39
2022-11-13T20:11:56.064Z,12.37
2022-11-13T20:14:26.886Z,12.37
2022-11-13T20:16:59.354Z,12.35
2022-11-13T20:19:31.894Z,12.30
2022-11-13T20:22:02.595Z,12.24
2022-11-13T20:24:34.857Z,12.18
2022-11-13T20:27:07.211Z,12.17
2022-11-13T20:29:39.651Z,12.13
2022-11-13T20:32:12.705Z,12.06
2022-11-13T20:34:45.357Z,11.95
2022-11-13T20:37:17.771Z,11.89
2022-11-13T20:39:50.116Z,11.85
2022-11-13T20:42:22.494Z,11.86
2022-11-13T20:44:59.871Z,11.89
2022-11-13T20:53:49.048Z,11.83
2022-11-13T20:56:20.192Z,11.80
2022-11-13T20:58:52.552Z,11.74
2022-11-13T21:01:26.664Z,11.67
2022-11-13T21:03:59.690Z,11.61
2022-11-13T21:06:32.189Z,11.64
2022-11-13T21:09:05.843Z,11.70
2022-11-13T21:11:38.432Z,11.75
2022-11-13T21:14:12.311Z,11.80
2022-11-13T21:16:44.862Z,11.78
2022-11-13T21:19:17.463Z,11.74
2022-11-13T21:21:50.163Z,11.69
2022-11-13T21:24:22.489Z,11.60
2022-11-13T21:26:55.747Z,11.54
2022-11-13T21:29:28.027Z,11.50
2022-11-13T21:32:00.601Z,11.50
2022-11-13T21:34:31.364Z,11.52
2022-11-13T21:37:03.905Z,11.50
2022-11-13T21:39:36.267Z,11.49
2022-11-13T21:42:08.754Z,11.46
2022-11-13T21:44:39.654Z,11.40
2022-11-13T21:47:12.887Z,11.31
2022-11-13T21:49:45.653Z,11.22
2022-11-13T21:52:18.123Z,11.14
2022-11-13T21:54:48.916Z,11.08
2022-11-13T21:57:24.345Z,11.04
2022-11-13T21:59:56.757Z,11.02
2022-11-13T22:02:27.615Z,10.99
2022-11-13T22:05:00.189Z,10.94
2022-11-13T22:07:32.760Z,10.98
2022-11-13T22:10:08.191Z,11.01
2022-11-13T22:12:42.058Z,11.02
2022-11-13T22:15:15.220Z,11.03
2022-11-13T22:17:47.759Z,10.98
2022-11-13T22:20:18.742Z,10.89
2022-11-13T22:22:51.261Z,10.84
2022-11-13T22:25:22.114Z,10.84
2022-11-13T22:27:54.432Z,10.85
2022-11-13T22:30:26.769Z,10.89
2022-11-13T22:32:59.247Z,10.91
2022-11-13T22:35:32.781Z,10.94
2022-11-13T22:38:06.351Z,10.94
2022-11-13T22:40:38.662Z,10.92
2022-11-13T22:43:11.016Z,10.91
2022-11-13T22:45:43.248Z,10.90
2022-11-13T22:48:15.550Z,10.86
2022-11-13T22:50:47.789Z,10.83
2022-11-13T22:53:20.139Z,10.81
2022-11-13T22:55:52.537Z,10.79
2022-11-13T22:58:24.962Z,10.80
2022-11-13T23:00:57.221Z,10.82
2022-11-13T23:03:29.670Z,10.81
2022-11-13T23:06:04.028Z,10.80
2022-11-13T23:08:38.968Z,10.81
2022-11-13T23:11:14.846Z,10.84
2022-11-13T23:13:48.959Z,10.89
2022-11-13T23:16:22.759Z,10.92
2022-11-13T23:18:57.252Z,10.96
2022-11-13T23:21:30.396Z,10.89
2022-11-13T23:24:02.715Z,10.78
2022-11-13T23:26:35.043Z,10.66
2022-11-13T23:29:07.431Z,10.58
2022-11-13T23:31:39.692Z,10.53
2022-11-13T23:34:12.032Z,10.54
2022-11-13T23:36:44.316Z,10.59
2022-11-13T23:39:18.581Z,10.59
2022-11-13T23:41:51.139Z,10.52
2022-11-13T23:44:25.768Z,10.46
2022-11-13T23:46:58.041Z,10.38
2022-11-13T23:49:30.205Z,10.32
2022-11-13T23:52:05.823Z,10.25
2022-11-13T23:54:38.862Z,10.22
2022-11-13T23:57:17.848Z,10.24
2022-11-13T23:59:50.354Z,10.31
